Time;durP1;ratioP1;P1;durP2;ratioP2;P2;SDS_P1;SDS_P2;PMS_P1;PMS_P2;Temp;Humidity;BMP_temperature;BMP_pressure;BME280_temperature;BME280_humidity;BME280_pressure;Samples;Min_cycle;Max_cycle;Signal;HPM_P1;HPM_P2
2021/03/02 00:00:07;;;;;;;28.85;18.50;;;4.80;86.70;;;;;;4974688;28;20400;-72
2021/03/02 00:02:33;;;;;;;35.20;20.05;;;4.60;86.60;;;;;;4975065;28;20396;-73
2021/03/02 00:04:59;;;;;;;34.25;20.33;;;4.40;88.40;;;;;;4974449;28;20468;-72
2021/03/02 00:07:26;;;;;;;34.40;20.53;;;4.20;89.70;;;;;;4974147;28;20483;-71
2021/03/02 00:09:53;;;;;;;36.20;20.25;;;4.10;91.20;;;;;;4974357;28;20412;-71
2021/03/02 00:12:19;;;;;;;31.50;19.43;;;3.90;92.30;;;;;;4973997;28;20442;-71
2021/03/02 00:14:45;;;;;;;32.90;20.55;;;3.80;92.70;;;;;;4973776;28;20420;-73
2021/03/02 00:17:30;;;;;;;34.20;20.70;;;3.70;93.40;;;;;;4974224;28;20397;-71
2021/03/02 00:20:07;;;;;;;35.15;19.85;;;3.90;94.30;;;;;;4973102;28;20446;-72
2021/03/02 00:23:02;;;;;;;29.08;18.05;;;4.00;94.20;;;;;;4970149;28;20412;-73
2021/03/02 00:25:36;;;;;;;29.27;18.20;;;4.20;92.50;;;;;;4952189;28;20484;-72
2021/03/02 00:28:06;;;;;;;29.90;17.98;;;4.30;90.10;;;;;;4972874;28;20487;-72
2021/03/02 00:30:33;;;;;;;31.13;18.37;;;4.30;88.10;;;;;;4972780;28;21045;-75
2021/03/02 00:33:00;;;;;;;27.95;17.75;;;4.20;88.00;;;;;;4972591;28;20407;-73
2021/03/02 00:35:25;;;;;;;25.88;16.40;;;4.10;87.20;;;;;;4972448;28;20952;-74
2021/03/02 00:37:51;;;;;;;25.45;16.52;;;3.90;88.70;;;;;;4972087;28;20408;-73
2021/03/02 00:40:17;;;;;;;23.77;15.57;;;3.90;89.50;;;;;;4972537;28;20388;-72
2021/03/02 00:42:44;;;;;;;22.15;14.57;;;4.30;86.30;;;;;;4969971;28;20754;-74
2021/03/02 00:45:11;;;;;;;20.50;14.23;;;4.30;82.70;;;;;;4972361;28;20476;-73
2021/03/02 00:47:37;;;;;;;25.00;14.70;;;4.10;82.70;;;;;;4972312;28;20411;-76
2021/03/02 00:50:04;;;;;;;23.15;14.80;;;3.90;84.40;;;;;;4972136;28;21419;-74
2021/03/02 00:52:29;;;;;;;23.73;15.20;;;3.70;84.50;;;;;;4971361;28;20800;-73
2021/03/02 00:54:55;;;;;;;22.25;14.75;;;3.50;86.40;;;;;;4971962;28;20408;-74
2021/03/02 00:57:20;;;;;;;26.67;15.80;;;3.60;86.70;;;;;;4972396;28;20408;-72
2021/03/02 00:59:46;;;;;;;26.83;16.93;;;3.50;87.10;;;;;;4971678;28;20460;-73
2021/03/02 01:02:12;;;;;;;24.07;14.80;;;3.40;87.80;;;;;;4974624;28;20483;-73
2021/03/02 01:04:37;;;;;;;24.33;15.17;;;3.30;88.30;;;;;;4976256;28;20427;-74
2021/03/02 01:07:04;;;;;;;24.53;15.80;;;3.20;88.20;;;;;;4976129;28;20388;-74
2021/03/02 01:09:30;;;;;;;23.95;15.60;;;3.20;88.90;;;;;;4975524;28;20407;-73
2021/03/02 01:11:55;;;;;;;27.65;17.88;;;3.10;89.30;;;;;;4976580;28;20492;-73
2021/03/02 01:14:21;;;;;;;27.23;17.13;;;3.10;89.90;;;;;;4975923;28;20839;-72
2021/03/02 01:16:46;;;;;;;29.23;17.23;;;3.10;90.40;;;;;;4975454;28;20400;-74
2021/03/02 01:19:12;;;;;;;27.35;16.35;;;3.10;90.30;;;;;;4976036;28;20392;-74
2021/03/02 01:21:37;;;;;;;26.50;15.23;;;3.10;89.80;;;;;;4975831;28;20467;-74
2021/03/02 01:24:03;;;;;;;26.85;15.80;;;3.00;90.20;;;;;;4975687;28;20392;-73
2021/03/02 01:26:29;;;;;;;25.00;16.00;;;3.00;90.40;;;;;;4976523;28;20396;-73
2021/03/02 01:28:54;;;;;;;24.57;15.40;;;3.00;90.30;;;;;;4976598;28;20459;-74
2021/03/02 01:31:20;;;;;;;28.15;16.50;;;3.00;90.50;;;;;;4976417;28;20404;-74
2021/03/02 01:33:46;;;;;;;25.42;15.65;;;3.00;90.40;;;;;;4977044;28;20491;-74
2021/03/02 01:36:11;;;;;;;27.73;15.30;;;3.00;90.60;;;;;;4977505;28;20392;-73
2021/03/02 01:38:38;;;;;;;24.57;14.43;;;2.90;90.60;;;;;;4977587;28;20715;-72
2021/03/02 01:41:04;;;;;;;21.90;14.43;;;2.90;90.80;;;;;;4976935;28;20890;-73
2021/03/02 01:43:29;;;;;;;24.37;14.40;;;2.90;91.10;;;;;;4959726;28;20388;-73
2021/03/02 01:45:55;;;;;;;29.58;16.30;;;2.90;90.60;;;;;;4977518;28;20416;-74
2021/03/02 01:48:20;;;;;;;23.25;14.30;;;2.90;90.60;;;;;;4977189;28;20388;-74
2021/03/02 01:50:46;;;;;;;23.77;14.27;;;3.00;90.60;;;;;;4975995;28;20487;-72
2021/03/02 01:53:11;;;;;;;21.30;13.90;;;3.00;90.40;;;;;;4975598;28;20454;-74
2021/03/02 01:55:37;;;;;;;23.93;13.43;;;3.00;90.50;;;;;;4975798;28;20929;-73
2021/03/02 01:58:02;;;;;;;22.47;13.80;;;3.00;90.30;;;;;;4976933;28;20462;-73
2021/03/02 02:00:35;;;;;;;20.23;13.20;;;2.90;89.60;;;;;;4975863;28;20393;-74
2021/03/02 02:03:23;;;;;;;20.63;13.15;;;2.90;89.20;;;;;;4976483;28;20388;-73
2021/03/02 02:06:02;;;;;;;23.47;13.73;;;2.90;89.70;;;;;;4978255;28;20384;-73
2021/03/02 02:08:39;;;;;;;22.02;13.82;;;3.00;90.30;;;;;;4978096;28;20400;-74
2021/03/02 02:11:32;;;;;;;19.90;12.40;;;3.00;89.30;;;;;;4981073;28;20381;-73
2021/03/02 02:14:12;;;;;;;19.55;12.88;;;3.00;88.70;;;;;;4977126;28;20888;-73
2021/03/02 02:16:41;;;;;;;25.60;15.30;;;3.00;89.30;;;;;;4981645;28;20416;-74
2021/03/02 02:19:20;;;;;;;22.77;14.15;;;3.00;88.40;;;;;;4981158;28;20419;-74
2021/03/02 02:22:10;;;;;;;20.35;13.32;;;3.00;88.20;;;;;;4979004;28;20438;-74
2021/03/02 02:24:47;;;;;;;20.03;13.53;;;2.90;88.00;;;;;;4961863;28;20399;-73
2021/03/02 02:27:13;;;;;;;23.20;13.85;;;2.90;88.10;;;;;;4979206;28;20420;-75
2021/03/02 02:29:39;;;;;;;24.35;14.00;;;2.90;87.60;;;;;;4978831;28;20403;-73
2021/03/02 02:32:07;;;;;;;19.13;13.30;;;2.90;88.40;;;;;;4962335;28;20396;-74
2021/03/02 02:34:35;;;;;;;22.95;13.73;;;2.80;88.00;;;;;;4977854;28;20826;-74
2021/03/02 02:37:03;;;;;;;26.05;13.60;;;2.90;87.70;;;;;;4945575;28;20831;-74
2021/03/02 02:39:32;;;;;;;20.15;13.57;;;3.10;86.30;;;;;;4958850;29;20848;-73
2021/03/02 02:41:58;;;;;;;19.80;13.13;;;3.00;85.90;;;;;;4966752;28;20464;-73
2021/03/02 02:44:25;;;;;;;22.48;13.10;;;2.80;86.10;;;;;;4979402;28;20447;-73
2021/03/02 02:46:53;;;;;;;18.92;13.18;;;2.80;86.50;;;;;;4979169;28;20410;-74
2021/03/02 02:49:18;;;;;;;20.63;13.73;;;2.70;86.70;;;;;;4978372;28;20428;-73
2021/03/02 02:51:45;;;;;;;22.23;13.13;;;2.60;86.70;;;;;;4979229;28;20723;-73
2021/03/02 02:54:13;;;;;;;22.67;12.95;;;2.60;87.40;;;;;;4978661;28;20447;-74
2021/03/02 02:56:42;;;;;;;22.05;13.63;;;2.60;88.10;;;;;;4979496;28;20380;-74
2021/03/02 02:59:09;;;;;;;19.83;12.50;;;2.60;87.80;;;;;;4979498;28;20461;-73
2021/03/02 03:01:42;;;;;;;18.30;12.30;;;2.60;87.40;;;;;;4979563;28;20385;-72
2021/03/02 03:04:13;;;;;;;19.42;12.70;;;2.60;86.80;;;;;;4979322;28;20460;-73
2021/03/02 03:06:42;;;;;;;18.35;12.82;;;2.50;86.00;;;;;;4979018;28;20762;-74
2021/03/02 03:09:08;;;;;;;19.45;12.32;;;2.60;86.60;;;;;;4974104;28;20411;-73
2021/03/02 03:11:42;;;;;;;22.40;13.53;;;2.50;86.80;;;;;;4974358;28;20392;-74
2021/03/02 03:14:12;;;;;;;20.48;13.27;;;2.50;86.90;;;;;;4956230;28;20570;-73
2021/03/02 03:16:40;;;;;;;20.15;12.63;;;2.40;87.30;;;;;;4974321;28;20412;-72
2021/03/02 03:19:08;;;;;;;22.73;12.70;;;2.40;87.50;;;;;;4973675;28;20581;-73
2021/03/02 03:21:34;;;;;;;18.27;12.20;;;2.40;87.70;;;;;;4973890;28;20923;-74
2021/03/02 03:24:01;;;;;;;16.77;11.40;;;2.40;87.80;;;;;;4973892;28;20392;-74
2021/03/02 03:26:32;;;;;;;17.55;12.40;;;2.40;88.00;;;;;;4973937;28;20398;-74
2021/03/02 03:28:59;;;;;;;19.13;12.68;;;2.40;87.80;;;;;;4956206;28;20479;-74
2021/03/02 03:31:25;;;;;;;19.20;12.17;;;2.40;87.50;;;;;;4973709;28;20435;-73
2021/03/02 03:33:52;;;;;;;17.00;11.55;;;2.30;87.60;;;;;;4973890;28;20411;-74
2021/03/02 03:36:19;;;;;;;19.90;11.88;;;2.40;87.90;;;;;;4973849;28;20393;-74
2021/03/02 03:38:45;;;;;;;17.83;11.30;;;2.40;87.70;;;;;;4977241;28;20747;-74
2021/03/02 03:41:11;;;;;;;16.40;10.40;;;2.40;88.10;;;;;;4978231;28;20391;-73
2021/03/02 03:43:37;;;;;;;14.88;10.82;;;2.40;87.70;;;;;;4977711;28;20397;-72
2021/03/02 03:46:02;;;;;;;18.73;10.82;;;2.40;87.30;;;;;;4976495;28;20775;-73
2021/03/02 03:48:28;;;;;;;15.77;10.40;;;2.40;86.80;;;;;;4978166;28;20957;-74
2021/03/02 03:50:54;;;;;;;15.30;9.30;;;2.40;87.90;;;;;;4979405;28;20392;-73
2021/03/02 03:53:21;;;;;;;17.88;10.35;;;2.60;87.10;;;;;;4980060;28;20424;-75
2021/03/02 03:55:50;;;;;;;15.55;9.20;;;2.50;86.00;;;;;;4980898;28;20488;-73
2021/03/02 03:58:21;;;;;;;14.98;10.10;;;2.50;86.40;;;;;;4977225;28;20404;-74
2021/03/02 04:00:54;;;;;;;14.70;9.73;;;2.50;86.80;;;;;;4976706;28;20392;-73
2021/03/02 04:03:20;;;;;;;19.10;10.90;;;2.60;87.20;;;;;;4977698;28;20404;-73
2021/03/02 04:05:47;;;;;;;16.50;11.35;;;2.50;86.80;;;;;;4976988;28;20385;-74
2021/03/02 04:08:15;;;;;;;18.67;10.90;;;2.50;86.80;;;;;;4980247;28;20399;-73
2021/03/02 04:10:42;;;;;;;15.73;10.50;;;2.40;86.40;;;;;;4977874;28;20747;-73
2021/03/02 04:13:12;;;;;;;17.25;10.63;;;2.40;86.50;;;;;;4976470;28;20423;-73
2021/03/02 04:15:38;;;;;;;15.27;10.70;;;2.40;87.00;;;;;;4977049;28;20435;-73
2021/03/02 04:18:12;;;;;;;16.73;10.63;;;2.50;86.30;;;;;;4977605;28;20395;-76
2021/03/02 04:20:39;;;;;;;14.15;10.00;;;2.50;86.20;;;;;;4977200;28;20407;-74
2021/03/02 04:23:04;;;;;;;17.20;11.05;;;2.40;86.50;;;;;;4977071;28;20399;-74
2021/03/02 04:25:31;;;;;;;18.43;10.20;;;2.50;87.20;;;;;;4976199;28;20491;-73
2021/03/02 04:27:57;;;;;;;17.70;10.60;;;2.50;88.00;;;;;;4976568;28;20399;-74
2021/03/02 04:30:23;;;;;;;17.48;9.90;;;2.60;87.00;;;;;;4976341;28;20400;-73
2021/03/02 04:32:48;;;;;;;15.48;10.23;;;2.60;86.80;;;;;;4975399;28;20450;-73
2021/03/02 04:35:14;;;;;;;16.38;10.10;;;2.50;86.10;;;;;;4972584;28;20806;-74
2021/03/02 04:37:40;;;;;;;14.23;9.47;;;2.50;86.50;;;;;;4972534;28;20995;-73
2021/03/02 04:40:06;;;;;;;12.82;9.13;;;2.50;87.20;;;;;;4971956;28;20487;-73
2021/03/02 04:42:32;;;;;;;16.25;10.00;;;2.50;85.60;;;;;;4960676;28;20398;-72
2021/03/02 04:44:58;;;;;;;15.02;9.68;;;2.50;85.40;;;;;;4936177;29;20404;-74
2021/03/02 04:47:24;;;;;;;14.80;9.80;;;2.50;85.90;;;;;;4953079;28;20406;-72
2021/03/02 04:49:50;;;;;;;14.20;10.10;;;2.50;85.60;;;;;;4955037;29;20484;-73
2021/03/02 04:52:17;;;;;;;14.38;9.15;;;2.40;85.60;;;;;;4955813;29;20879;-72
2021/03/02 04:54:43;;;;;;;15.52;9.90;;;2.40;86.60;;;;;;4973189;28;20475;-72
2021/03/02 04:57:08;;;;;;;15.65;10.10;;;2.30;86.60;;;;;;4974339;28;20406;-73
2021/03/02 04:59:34;;;;;;;13.60;10.10;;;2.30;87.10;;;;;;4971828;28;20380;-72
2021/03/02 05:01:59;;;;;;;17.23;9.70;;;2.30;87.40;;;;;;4972195;28;20427;-73
2021/03/02 05:04:25;;;;;;;14.30;9.97;;;2.20;87.40;;;;;;4972072;28;20475;-73
2021/03/02 05:06:50;;;;;;;16.77;10.35;;;2.30;87.70;;;;;;4971696;28;20913;-75
2021/03/02 05:09:16;;;;;;;19.95;11.63;;;2.40;88.20;;;;;;4971709;28;20965;-75
2021/03/02 05:11:41;;;;;;;18.60;11.88;;;2.30;88.20;;;;;;4972005;28;20870;-73
2021/03/02 05:14:07;;;;;;;18.95;11.45;;;2.20;87.80;;;;;;4971796;28;20886;-72
2021/03/02 05:16:32;;;;;;;15.55;10.10;;;2.20;88.10;;;;;;4971907;28;20388;-73
2021/03/02 05:18:58;;;;;;;15.83;11.07;;;2.20;88.60;;;;;;4972085;28;20389;-73
2021/03/02 05:21:24;;;;;;;17.23;10.73;;;2.30;88.70;;;;;;4970240;28;20400;-72
2021/03/02 05:23:49;;;;;;;13.50;9.80;;;2.30;89.00;;;;;;4972040;28;20388;-73
2021/03/02 05:26:16;;;;;;;15.55;10.38;;;2.40;88.50;;;;;;4971721;28;20388;-73
2021/03/02 05:28:42;;;;;;;17.20;9.90;;;2.30;87.70;;;;;;4971710;28;20407;-75
2021/03/02 05:31:07;;;;;;;18.27;10.80;;;2.30;87.50;;;;;;4970701;28;20392;-72
2021/03/02 05:33:33;;;;;;;18.50;11.00;;;2.30;87.70;;;;;;4971683;28;20388;-73
2021/03/02 05:35:58;;;;;;;19.50;11.63;;;2.30;88.10;;;;;;4970891;28;20403;-73
2021/03/02 05:38:24;;;;;;;20.27;12.85;;;2.30;87.80;;;;;;4970810;28;20400;-73
2021/03/02 05:40:50;;;;;;;17.23;10.93;;;2.30;87.80;;;;;;4971631;28;20395;-72
2021/03/02 05:43:15;;;;;;;19.30;12.10;;;2.30;87.70;;;;;;4971599;28;20799;-73
2021/03/02 05:45:43;;;;;;;16.67;11.67;;;2.30;87.60;;;;;;4971354;28;20423;-73
2021/03/02 05:48:10;;;;;;;17.00;11.43;;;2.30;87.20;;;;;;4971663;28;20858;-73
2021/03/02 05:50:36;;;;;;;15.52;11.07;;;2.20;87.10;;;;;;4971148;28;20514;-73
2021/03/02 05:53:02;;;;;;;15.75;10.55;;;2.20;87.00;;;;;;4971411;28;20484;-73
2021/03/02 05:55:29;;;;;;;24.27;14.35;;;2.20;86.10;;;;;;4971698;28;20466;-71
2021/03/02 05:57:55;;;;;;;16.85;11.10;;;2.20;86.60;;;;;;4971818;28;20384;-73
2021/03/02 06:00:21;;;;;;;19.58;10.57;;;2.20;86.20;;;;;;4971503;28;20455;-72
2021/03/02 06:02:47;;;;;;;18.27;10.90;;;2.20;86.50;;;;;;4971136;28;20403;-72
2021/03/02 06:05:14;;;;;;;16.02;10.68;;;2.20;86.70;;;;;;4971592;28;20467;-72
2021/03/02 06:07:39;;;;;;;16.02;10.90;;;2.20;87.10;;;;;;4971125;28;20459;-73
2021/03/02 06:10:05;;;;;;;17.97;10.60;;;2.20;86.80;;;;;;4971367;28;20392;-73
2021/03/02 06:12:55;;;;;;;16.77;11.00;;;2.20;86.90;;;;;;4970996;28;20396;-73
2021/03/02 06:15:21;;;;;;;19.58;11.38;;;2.20;86.70;;;;;;4971519;28;20415;-74
2021/03/02 06:17:47;;;;;;;19.88;11.00;;;2.30;86.70;;;;;;4971257;28;20469;-73
2021/03/02 06:20:20;;;;;;;19.83;12.20;;;2.40;86.10;;;;;;4970768;28;20656;-73
2021/03/02 06:22:46;;;;;;;17.73;10.60;;;2.40;86.00;;;;;;4970988;28;20945;-73
2021/03/02 06:25:33;;;;;;;17.80;11.17;;;2.50;86.60;;;;;;4972004;28;20491;-74
2021/03/02 06:27:59;;;;;;;15.25;10.85;;;2.50;86.10;;;;;;4971347;28;20404;-74
2021/03/02 06:30:25;;;;;;;20.95;11.40;;;2.60;85.70;;;;;;4971416;28;20550;-74
2021/03/02 06:32:53;;;;;;;22.48;12.52;;;2.70;85.70;;;;;;4968775;28;20407;-73
2021/03/02 06:35:48;;;;;;;24.77;11.60;;;2.90;84.30;;;;;;4971722;28;20415;-74
2021/03/02 06:38:28;;;;;;;15.45;10.50;;;2.90;83.30;;;;;;4966508;28;20411;-73
2021/03/02 06:40:54;;;;;;;19.23;11.00;;;2.90;82.80;;;;;;4949383;29;20783;-74
2021/03/02 06:43:36;;;;;;;15.70;10.00;;;2.90;82.20;;;;;;4969993;28;20393;-73
2021/03/02 06:46:06;;;;;;;16.40;9.50;;;3.00;81.80;;;;;;4970960;28;20480;-74
2021/03/02 06:48:48;;;;;;;16.80;10.05;;;3.10;81.40;;;;;;4953485;28;20780;-73
2021/03/02 06:51:31;;;;;;;16.53;10.40;;;3.10;81.10;;;;;;4973671;28;20392;-74
2021/03/02 06:54:02;;;;;;;27.02;15.95;;;3.30;80.30;;;;;;4973750;28;20450;-74
2021/03/02 06:56:28;;;;;;;19.02;9.95;;;3.50;79.70;;;;;;4977248;28;20384;-74
2021/03/02 06:59:16;;;;;;;16.97;9.87;;;3.80;78.80;;;;;;4978755;28;20431;-73
2021/03/02 07:01:47;;;;;;;15.40;10.50;;;3.80;75.70;;;;;;4977598;28;20419;-73
2021/03/02 07:04:17;;;;;;;14.98;9.90;;;3.80;76.00;;;;;;4976187;28;20415;-72
2021/03/02 07:06:43;;;;;;;15.10;10.63;;;3.80;76.00;;;;;;4974154;28;20762;-74
2021/03/02 07:09:10;;;;;;;17.00;9.80;;;3.80;75.80;;;;;;4973348;28;20431;-74
2021/03/02 07:11:38;;;;;;;17.20;10.00;;;3.90;75.90;;;;;;4974353;28;21055;-73
2021/03/02 07:14:06;;;;;;;18.75;10.10;;;4.00;74.90;;;;;;4974679;28;20412;-72
2021/03/02 07:16:47;;;;;;;18.23;10.70;;;4.30;73.30;;;;;;4973958;28;20467;-72
2021/03/02 07:19:21;;;;;;;17.02;9.75;;;4.50;70.70;;;;;;4956509;28;20882;-74
2021/03/02 07:21:54;;;;;;;14.02;9.20;;;4.70;68.60;;;;;;4973693;28;20384;-75
2021/03/02 07:24:26;;;;;;;15.43;9.77;;;4.60;67.30;;;;;;4973876;28;20411;-74
2021/03/02 07:26:54;;;;;;;19.92;9.90;;;4.70;68.60;;;;;;4974088;28;20487;-74
2021/03/02 07:29:20;;;;;;;18.00;10.50;;;4.70;69.20;;;;;;4956005;28;20411;-74
2021/03/02 07:31:49;;;;;;;20.63;10.00;;;4.90;68.30;;;;;;4974914;28;20384;-76
2021/03/02 07:34:15;;;;;;;18.63;9.95;;;5.30;65.60;;;;;;4976679;28;20448;-74
2021/03/02 07:36:42;;;;;;;16.50;10.10;;;5.30;64.60;;;;;;4977268;28;20775;-75
2021/03/02 07:39:24;;;;;;;19.70;9.68;;;5.40;64.60;;;;;;4976301;28;20424;-76
2021/03/02 07:41:54;;;;;;;19.55;9.75;;;5.60;64.90;;;;;;4970051;28;20715;-73
2021/03/02 07:44:20;;;;;;;13.85;8.80;;;5.80;63.20;;;;;;4956615;29;20502;-74
2021/03/02 07:46:55;;;;;;;15.45;8.80;;;6.00;60.40;;;;;;4955793;28;20410;-73
2021/03/02 07:49:26;;;;;;;15.27;9.30;;;6.00;59.80;;;;;;4959370;29;20409;-74
2021/03/02 07:52:11;;;;;;;16.33;10.02;;;6.10;58.50;;;;;;4953638;28;20469;-75
2021/03/02 07:54:37;;;;;;;14.25;9.00;;;6.30;58.70;;;;;;4962508;28;20946;-72
2021/03/02 07:57:15;;;;;;;14.75;9.38;;;6.40;58.00;;;;;;4976014;28;20403;-73
2021/03/02 07:59:41;;;;;;;17.70;9.63;;;6.60;57.20;;;;;;4976177;28;20514;-71
2021/03/02 08:02:20;;;;;;;20.48;10.20;;;6.60;56.40;;;;;;4961300;28;20427;-72
2021/03/02 08:04:50;;;;;;;21.33;10.03;;;6.70;55.20;;;;;;4954062;28;20427;-73
2021/03/02 08:07:27;;;;;;;20.70;11.10;;;6.70;55.00;;;;;;4974732;28;20770;-74
2021/03/02 08:09:58;;;;;;;15.27;9.35;;;6.90;54.20;;;;;;4959005;29;20441;-74
2021/03/02 08:12:31;;;;;;;18.37;10.03;;;7.00;52.90;;;;;;4980112;28;20404;-73
2021/03/02 08:15:01;;;;;;;18.13;9.25;;;7.20;50.50;;;;;;4961888;28;20465;-77
2021/03/02 08:17:27;;;;;;;18.25;9.40;;;7.30;51.10;;;;;;4974677;28;20974;-72
2021/03/02 08:20:02;;;;;;;21.90;10.18;;;7.40;51.10;;;;;;4969466;28;20903;-72
2021/03/02 08:22:30;;;;;;;18.52;9.93;;;7.50;51.80;;;;;;4974106;28;20458;-73
2021/03/02 08:25:10;;;;;;;15.43;9.80;;;7.60;50.40;;;;;;4974964;28;20423;-75
2021/03/02 08:27:56;;;;;;;14.40;9.65;;;7.80;47.60;;;;;;4970981;28;20403;-74
2021/03/02 08:30:23;;;;;;;16.85;10.10;;;8.00;46.30;;;;;;4957382;28;20925;-72
2021/03/02 08:32:52;;;;;;;15.90;9.80;;;8.10;45.90;;;;;;4973461;28;20890;-73
2021/03/02 08:35:27;;;;;;;18.30;9.50;;;8.20;44.00;;;;;;4973076;28;20411;-73
2021/03/02 08:37:57;;;;;;;19.57;10.70;;;8.30;42.90;;;;;;4973858;28;20384;-73
2021/03/02 08:40:31;;;;;;;17.55;9.60;;;8.40;42.60;;;;;;4973035;28;20644;-73
2021/03/02 08:43:24;;;;;;;15.70;10.18;;;8.50;41.60;;;;;;4944138;29;20752;-75
2021/03/02 08:45:52;;;;;;;16.33;9.85;;;8.70;41.10;;;;;;4972771;28;20495;-73
2021/03/02 08:48:19;;;;;;;20.00;10.35;;;8.70;40.90;;;;;;4974196;28;20487;-74
2021/03/02 08:50:54;;;;;;;14.45;9.60;;;8.90;38.30;;;;;;4972757;28;20462;-77
2021/03/02 08:53:41;;;;;;;19.05;10.40;;;9.10;38.50;;;;;;4973136;28;20442;-74
2021/03/02 08:56:17;;;;;;;16.85;9.85;;;9.20;38.80;;;;;;4974540;28;20401;-72
2021/03/02 08:58:45;;;;;;;17.52;10.38;;;9.30;38.40;;;;;;4969655;28;20990;-73
2021/03/02 09:01:23;;;;;;;16.35;10.30;;;9.40;37.30;;;;;;4969269;28;20391;-72
2021/03/02 09:03:51;;;;;;;17.60;10.00;;;9.50;36.40;;;;;;4973749;28;20758;-72
2021/03/02 09:06:25;;;;;;;16.98;10.23;;;9.60;35.60;;;;;;4974167;28;20416;-73
2021/03/02 09:08:58;;;;;;;18.17;10.75;;;9.80;36.00;;;;;;4973243;28;20418;-71
2021/03/02 09:11:29;;;;;;;19.48;10.43;;;9.90;33.80;;;;;;4973069;28;20403;-72
2021/03/02 09:13:57;;;;;;;16.50;10.50;;;10.20;32.50;;;;;;4966331;28;20462;-72
2021/03/02 09:16:38;;;;;;;19.40;10.80;;;10.30;32.30;;;;;;4973808;28;20395;-72
2021/03/02 09:19:14;;;;;;;19.97;10.13;;;10.40;31.60;;;;;;4971126;28;20415;-71
2021/03/02 09:21:58;;;;;;;16.55;10.90;;;10.50;31.40;;;;;;4972184;28;20397;-71
2021/03/02 09:24:26;;;;;;;18.77;11.00;;;10.80;30.90;;;;;;4974738;28;20439;-72
2021/03/02 09:27:07;;;;;;;16.27;10.18;;;10.90;29.00;;;;;;4964823;28;20484;-72
2021/03/02 09:29:44;;;;;;;18.63;10.55;;;11.00;30.00;;;;;;4972906;28;20400;-71
2021/03/02 09:32:11;;;;;;;128.82;76.88;;;11.20;28.70;;;;;;4972366;28;20408;-71
2021/03/02 09:34:45;;;;;;;422.75;287.67;;;11.40;31.60;;;;;;4972894;28;20917;-73
2021/03/02 09:37:17;;;;;;;20.15;10.35;;;11.50;30.40;;;;;;4973532;28;20423;-72
2021/03/02 09:40:07;;;;;;;53.33;27.55;;;11.60;26.60;;;;;;4955707;28;20426;-72
2021/03/02 09:42:35;;;;;;;43.30;25.95;;;11.70;26.70;;;;;;4970653;28;20402;-71
2021/03/02 09:45:10;;;;;;;27.38;15.90;;;11.90;27.10;;;;;;4971954;28;20462;-71
2021/03/02 09:47:37;;;;;;;19.37;12.03;;;12.00;25.00;;;;;;4971953;28;20466;-72
2021/03/02 09:50:09;;;;;;;35.97;19.23;;;12.70;23.80;;;;;;4972451;28;20408;-71
2021/03/02 09:52:35;;;;;;;25.52;12.55;;;13.70;20.00;;;;;;4954921;28;20538;-72
2021/03/02 09:55:15;;;;;;;22.95;11.50;;;13.90;18.00;;;;;;4971927;28;20892;-71
2021/03/02 09:58:15;;;;;;;19.23;12.10;;;13.70;18.60;;;;;;4972443;28;20392;-73
2021/03/02 10:00:55;;;;;;;35.80;16.10;;;13.50;18.00;;;;;;4973365;28;20537;-71
2021/03/02 10:03:25;;;;;;;18.23;12.20;;;13.30;20.00;;;;;;4970705;28;20744;-72
2021/03/02 10:06:02;;;;;;;21.02;11.40;;;13.10;19.20;;;;;;4971598;28;20711;-72
2021/03/02 10:08:36;;;;;;;19.42;11.27;;;13.00;18.80;;;;;;4972527;28;20446;-72
2021/03/02 10:11:10;;;;;;;17.58;11.13;;;13.00;19.80;;;;;;4971723;28;20407;-71
2021/03/02 10:13:37;;;;;;;20.52;10.80;;;13.10;19.70;;;;;;4972257;28;20408;-71
2021/03/02 10:16:09;;;;;;;23.92;12.70;;;13.00;18.80;;;;;;4955306;28;20766;-72
2021/03/02 10:18:34;;;;;;;21.88;14.48;;;13.00;19.30;;;;;;4971407;28;20406;-70
2021/03/02 10:21:08;;;;;;;19.92;12.13;;;13.10;20.20;;;;;;4971317;28;20785;-73
2021/03/02 10:23:41;;;;;;;21.50;11.80;;;13.20;19.30;;;;;;4971815;28;20400;-72
2021/03/02 10:26:07;;;;;;;20.35;11.75;;;13.20;19.20;;;;;;4969058;28;20485;-72
2021/03/02 10:28:33;;;;;;;25.42;12.20;;;13.20;19.40;;;;;;4973418;28;20920;-72
2021/03/02 10:31:00;;;;;;;22.67;13.15;;;13.20;19.40;;;;;;4974271;28;20910;-72
2021/03/02 10:33:26;;;;;;;20.08;11.40;;;13.20;20.10;;;;;;4974356;28;20412;-73
2021/03/02 10:35:52;;;;;;;17.50;11.57;;;13.30;19.60;;;;;;4974659;28;20455;-70
2021/03/02 10:38:18;;;;;;;22.87;13.70;;;13.30;19.40;;;;;;4957031;28;20404;-72
2021/03/02 10:40:43;;;;;;;17.87;10.90;;;13.40;19.80;;;;;;4972555;28;20401;-71
2021/03/02 10:43:09;;;;;;;17.43;11.10;;;13.60;19.30;;;;;;4968847;28;20451;-72
2021/03/02 10:45:35;;;;;;;20.10;11.83;;;13.70;17.90;;;;;;4957250;28;20476;-72
2021/03/02 10:48:00;;;;;;;26.52;11.55;;;13.60;17.90;;;;;;4968729;28;20533;-73
2021/03/02 10:50:26;;;;;;;20.00;12.38;;;13.70;17.20;;;;;;4974588;28;20388;-71
2021/03/02 10:52:51;;;;;;;22.03;12.10;;;13.80;17.60;;;;;;4975082;28;20495;-72
2021/03/02 10:55:17;;;;;;;19.87;11.67;;;13.80;17.40;;;;;;4975162;28;20464;-72
2021/03/02 10:57:42;;;;;;;17.13;10.20;;;13.80;17.00;;;;;;4973593;28;20407;-74
2021/03/02 11:00:08;;;;;;;21.10;12.10;;;13.80;17.50;;;;;;4973392;28;20826;-72
2021/03/02 11:02:34;;;;;;;20.77;12.53;;;14.00;17.10;;;;;;4974217;28;20439;-71
2021/03/02 11:05:47;;;;;;;25.27;13.30;;;14.00;17.40;;;;;;4973907;28;20400;-74
2021/03/02 11:08:13;;;;;;;19.47;12.00;;;14.10;16.90;;;;;;4970271;28;20501;-73
2021/03/02 11:10:38;;;;;;;19.20;11.10;;;14.20;16.60;;;;;;4963168;28;20498;-73
2021/03/02 11:13:04;;;;;;;21.37;11.70;;;14.20;16.80;;;;;;4973828;28;20403;-73
2021/03/02 11:15:29;;;;;;;19.40;11.00;;;14.20;16.50;;;;;;4973925;28;20415;-73
2021/03/02 11:17:55;;;;;;;20.27;12.10;;;14.20;16.80;;;;;;4974510;28;20507;-73
2021/03/02 11:20:21;;;;;;;22.50;11.27;;;14.20;16.30;;;;;;4973773;28;20889;-73
2021/03/02 11:22:47;;;;;;;16.60;10.90;;;14.30;15.60;;;;;;4973929;28;20823;-72
2021/03/02 11:25:17;;;;;;;20.13;11.53;;;14.40;15.70;;;;;;4973798;28;20396;-72
2021/03/02 11:27:43;;;;;;;19.10;12.30;;;14.50;15.80;;;;;;4974233;28;20388;-72
2021/03/02 11:30:09;;;;;;;19.85;11.90;;;14.50;14.50;;;;;;4974023;28;20731;-72
2021/03/02 11:32:35;;;;;;;18.88;10.50;;;14.50;14.20;;;;;;4973953;28;20493;-71
2021/03/02 11:35:00;;;;;;;19.57;11.60;;;14.50;14.70;;;;;;4973280;28;20418;-72
2021/03/02 11:37:25;;;;;;;20.70;11.93;;;14.50;14.20;;;;;;4973658;28;20433;-71
2021/03/02 11:39:51;;;;;;;17.88;11.63;;;14.60;13.70;;;;;;4972736;28;20407;-72
2021/03/02 11:42:16;;;;;;;19.90;12.17;;;14.70;13.90;;;;;;4973797;28;20463;-72
2021/03/02 11:44:42;;;;;;;20.70;12.17;;;14.70;14.30;;;;;;4974199;28;20392;-73
2021/03/02 11:47:07;;;;;;;21.65;12.05;;;14.80;13.80;;;;;;4974352;28;20815;-72
2021/03/02 11:49:33;;;;;;;20.20;12.00;;;14.90;13.60;;;;;;4973857;28;20408;-74
2021/03/02 11:51:59;;;;;;;19.10;12.17;;;14.90;12.90;;;;;;4973925;28;20411;-72
2021/03/02 11:54:24;;;;;;;20.13;12.00;;;14.90;13.20;;;;;;4972520;28;20912;-72
2021/03/02 11:56:50;;;;;;;24.53;12.17;;;14.90;13.50;;;;;;4973042;28;20569;-73
2021/03/02 11:59:15;;;;;;;19.80;11.35;;;15.00;13.30;;;;;;4972763;28;20396;-72
2021/03/02 12:01:41;;;;;;;20.70;11.50;;;15.30;13.40;;;;;;4973049;28;20547;-73
2021/03/02 12:04:06;;;;;;;18.53;12.60;;;15.30;13.00;;;;;;4972444;28;20396;-72
2021/03/02 12:06:32;;;;;;;24.67;12.80;;;15.30;12.10;;;;;;4973589;28;20608;-74
2021/03/02 12:08:57;;;;;;;25.15;12.52;;;15.20;12.60;;;;;;4976136;28;20412;-72
2021/03/02 12:11:23;;;;;;;22.00;12.60;;;15.20;12.80;;;;;;4977007;28;20411;-72
2021/03/02 12:13:48;;;;;;;21.77;13.20;;;15.30;11.70;;;;;;4976340;28;20504;-73
2021/03/02 12:16:14;;;;;;;20.83;12.40;;;15.30;11.40;;;;;;4977834;28;20482;-72
2021/03/02 12:18:39;;;;;;;22.00;12.82;;;15.30;10.50;;;;;;4975907;28;20428;-73
2021/03/02 12:21:05;;;;;;;24.40;12.37;;;15.40;10.80;;;;;;4975998;28;20389;-74
2021/03/02 12:23:30;;;;;;;19.80;12.30;;;15.40;10.80;;;;;;4974944;28;20396;-74
2021/03/02 12:25:56;;;;;;;22.00;12.80;;;15.50;10.00;;;;;;4974680;28;20909;-74
2021/03/02 12:28:21;;;;;;;25.42;13.18;;;15.50;10.20;;;;;;4973231;28;20403;-73
2021/03/02 12:30:47;;;;;;;22.87;13.30;;;15.50;9.90;;;;;;4976013;28;20834;-73
2021/03/02 12:33:12;;;;;;;26.03;13.17;;;15.50;9.70;;;;;;4976952;28;20411;-72
2021/03/02 12:35:38;;;;;;;20.92;13.20;;;15.60;10.70;;;;;;4973543;28;20654;-72
2021/03/02 12:38:05;;;;;;;27.88;14.23;;;15.70;10.50;;;;;;4971847;28;20822;-73
2021/03/02 12:40:30;;;;;;;20.98;12.45;;;15.70;9.80;;;;;;4958889;28;20388;-72
2021/03/02 12:42:56;;;;;;;22.95;12.50;;;15.70;9.80;;;;;;4978034;28;20399;-74
2021/03/02 12:45:22;;;;;;;23.50;12.70;;;15.70;10.30;;;;;;4977622;28;20456;-74